sensor_id;sensor_type;location;lat;lon;timestamp;P1;durP1;ratioP1;P2;durP2;ratioP2
7939;SDS011;4015;48.888;9.226;2023-06-22T00:00:48;9.38;;;7.63;;
7939;SDS011;4015;48.888;9.226;2023-06-22T00:03:14;10.20;;;7.60;;
7939;SDS011;4015;48.888;9.226;2023-06-22T00:05:40;6.93;;;6.32;;
7939;SDS011;4015;48.888;9.226;2023-06-22T00:08:05;10.43;;;7.10;;
7939;SDS011;4015;48.888;9.226;2023-06-22T00:10:31;7.93;;;7.13;;
7939;SDS011;4015;48.888;9.226;2023-06-22T00:12:56;9.13;;;7.20;;
7939;SDS011;4015;48.888;9.226;2023-06-22T00:15:21;7.90;;;6.63;;
7939;SDS011;4015;48.888;9.226;2023-06-22T00:17:47;8.13;;;6.72;;
7939;SDS011;4015;48.888;9.226;2023-06-22T00:20:12;7.70;;;6.35;;
7939;SDS011;4015;48.888;9.226;2023-06-22T00:22:39;10.23;;;6.82;;
7939;SDS011;4015;48.888;9.226;2023-06-22T00:25:06;8.45;;;7.15;;
7939;SDS011;4015;48.888;9.226;2023-06-22T00:27:32;7.80;;;7.00;;
7939;SDS011;4015;48.888;9.226;2023-06-22T00:29:57;12.73;;;6.95;;
7939;SDS011;4015;48.888;9.226;2023-06-22T00:32:22;9.00;;;6.82;;
7939;SDS011;4015;48.888;9.226;2023-06-22T00:34:48;8.88;;;7.40;;
7939;SDS011;4015;48.888;9.226;2023-06-22T00:37:13;10.30;;;7.00;;
7939;SDS011;4015;48.888;9.226;2023-06-22T00:39:38;7.80;;;7.03;;
7939;SDS011;4015;48.888;9.226;2023-06-22T00:42:04;10.25;;;6.53;;
7939;SDS011;4015;48.888;9.226;2023-06-22T00:44:29;7.57;;;6.60;;
7939;SDS011;4015;48.888;9.226;2023-06-22T00:46:55;7.30;;;6.47;;
7939;SDS011;4015;48.888;9.226;2023-06-22T00:49:20;9.18;;;7.20;;
7939;SDS011;4015;48.888;9.226;2023-06-22T00:51:46;7.55;;;6.85;;
7939;SDS011;4015;48.888;9.226;2023-06-22T00:54:12;7.85;;;6.78;;
7939;SDS011;4015;48.888;9.226;2023-06-22T00:56:39;9.90;;;7.35;;
7939;SDS011;4015;48.888;9.226;2023-06-22T00:59:05;9.65;;;8.38;;
7939;SDS011;4015;48.888;9.226;2023-06-22T01:01:31;9.05;;;7.32;;
7939;SDS011;4015;48.888;9.226;2023-06-22T01:03:57;17.92;;;8.23;;
7939;SDS011;4015;48.888;9.226;2023-06-22T01:06:26;9.38;;;7.55;;
7939;SDS011;4015;48.888;9.226;2023-06-22T01:09:22;11.25;;;7.28;;
7939;SDS011;4015;48.888;9.226;2023-06-22T01:11:57;10.77;;;8.98;;
7939;SDS011;4015;48.888;9.226;2023-06-22T01:14:36;12.68;;;7.97;;
7939;SDS011;4015;48.888;9.226;2023-06-22T01:17:06;9.60;;;7.63;;
7939;SDS011;4015;48.888;9.226;2023-06-22T01:20:06;9.90;;;8.05;;
7939;SDS011;4015;48.888;9.226;2023-06-22T01:22:27;9.55;;;7.68;;
7939;SDS011;4015;48.888;9.226;2023-06-22T01:25:07;8.43;;;7.55;;
7939;SDS011;4015;48.888;9.226;2023-06-22T01:27:40;14.32;;;7.65;;
7939;SDS011;4015;48.888;9.226;2023-06-22T01:30:10;9.35;;;7.70;;
7939;SDS011;4015;48.888;9.226;2023-06-22T01:32:38;8.65;;;7.75;;
7939;SDS011;4015;48.888;9.226;2023-06-22T01:35:06;8.30;;;7.50;;
7939;SDS011;4015;48.888;9.226;2023-06-22T01:37:34;8.70;;;7.78;;
7939;SDS011;4015;48.888;9.226;2023-06-22T01:40:01;10.40;;;8.00;;
7939;SDS011;4015;48.888;9.226;2023-06-22T01:42:29;10.93;;;8.18;;
7939;SDS011;4015;48.888;9.226;2023-06-22T01:44:55;11.55;;;8.15;;
7939;SDS011;4015;48.888;9.226;2023-06-22T01:47:21;8.68;;;7.30;;
7939;SDS011;4015;48.888;9.226;2023-06-22T01:49:48;11.18;;;7.97;;
7939;SDS011;4015;48.888;9.226;2023-06-22T01:52:14;12.60;;;8.82;;
7939;SDS011;4015;48.888;9.226;2023-06-22T01:54:40;8.73;;;7.88;;
7939;SDS011;4015;48.888;9.226;2023-06-22T01:57:06;12.82;;;7.95;;
7939;SDS011;4015;48.888;9.226;2023-06-22T01:59:34;8.38;;;7.18;;
7939;SDS011;4015;48.888;9.226;2023-06-22T02:02:09;9.48;;;8.48;;
7939;SDS011;4015;48.888;9.226;2023-06-22T02:07:09;9.18;;;8.27;;
7939;SDS011;4015;48.888;9.226;2023-06-22T02:09:39;12.05;;;7.63;;
7939;SDS011;4015;48.888;9.226;2023-06-22T02:12:07;8.63;;;7.75;;
7939;SDS011;4015;48.888;9.226;2023-06-22T02:14:35;8.38;;;7.20;;
7939;SDS011;4015;48.888;9.226;2023-06-22T02:17:02;9.20;;;7.70;;
7939;SDS011;4015;48.888;9.226;2023-06-22T02:19:32;9.45;;;8.38;;
7939;SDS011;4015;48.888;9.226;2023-06-22T02:22:01;12.65;;;8.88;;
7939;SDS011;4015;48.888;9.226;2023-06-22T02:24:26;10.15;;;8.45;;
7939;SDS011;4015;48.888;9.226;2023-06-22T02:26:51;8.52;;;7.72;;
7939;SDS011;4015;48.888;9.226;2023-06-22T02:29:17;9.55;;;8.23;;
7939;SDS011;4015;48.888;9.226;2023-06-22T02:31:42;10.35;;;7.72;;
7939;SDS011;4015;48.888;9.226;2023-06-22T02:34:08;8.80;;;7.95;;
7939;SDS011;4015;48.888;9.226;2023-06-22T02:36:33;14.15;;;7.75;;
7939;SDS011;4015;48.888;9.226;2023-06-22T02:38:59;11.52;;;8.80;;
7939;SDS011;4015;48.888;9.226;2023-06-22T02:41:26;9.18;;;8.00;;
7939;SDS011;4015;48.888;9.226;2023-06-22T02:43:52;10.35;;;8.07;;
7939;SDS011;4015;48.888;9.226;2023-06-22T02:46:17;11.25;;;7.70;;
7939;SDS011;4015;48.888;9.226;2023-06-22T02:48:43;9.35;;;8.43;;
7939;SDS011;4015;48.888;9.226;2023-06-22T02:51:08;9.77;;;8.00;;
7939;SDS011;4015;48.888;9.226;2023-06-22T02:53:34;9.93;;;7.72;;
7939;SDS011;4015;48.888;9.226;2023-06-22T02:56:01;10.77;;;8.15;;
7939;SDS011;4015;48.888;9.226;2023-06-22T02:58:28;11.55;;;8.60;;
7939;SDS011;4015;48.888;9.226;2023-06-22T03:00:53;10.93;;;7.95;;
7939;SDS011;4015;48.888;9.226;2023-06-22T03:03:19;8.63;;;7.82;;
7939;SDS011;4015;48.888;9.226;2023-06-22T03:05:44;8.77;;;7.97;;
7939;SDS011;4015;48.888;9.226;2023-06-22T03:08:10;12.32;;;8.02;;
7939;SDS011;4015;48.888;9.226;2023-06-22T03:10:35;10.50;;;7.45;;
7939;SDS011;4015;48.888;9.226;2023-06-22T03:13:01;11.52;;;8.98;;
7939;SDS011;4015;48.888;9.226;2023-06-22T03:15:26;9.77;;;8.73;;
7939;SDS011;4015;48.888;9.226;2023-06-22T03:17:54;10.80;;;8.55;;
7939;SDS011;4015;48.888;9.226;2023-06-22T03:20:20;9.73;;;8.30;;
7939;SDS011;4015;48.888;9.226;2023-06-22T03:22:45;9.63;;;8.68;;
7939;SDS011;4015;48.888;9.226;2023-06-22T03:25:11;13.05;;;8.98;;
7939;SDS011;4015;48.888;9.226;2023-06-22T03:27:38;9.52;;;8.50;;
7939;SDS011;4015;48.888;9.226;2023-06-22T03:30:04;13.27;;;9.27;;
7939;SDS011;4015;48.888;9.226;2023-06-22T03:32:31;10.07;;;8.20;;
7939;SDS011;4015;48.888;9.226;2023-06-22T03:34:57;12.15;;;9.68;;
7939;SDS011;4015;48.888;9.226;2023-06-22T03:37:23;10.23;;;8.25;;
7939;SDS011;4015;48.888;9.226;2023-06-22T03:39:52;10.82;;;8.13;;
7939;SDS011;4015;48.888;9.226;2023-06-22T03:42:18;15.23;;;8.38;;
7939;SDS011;4015;48.888;9.226;2023-06-22T03:44:43;11.15;;;8.48;;
7939;SDS011;4015;48.888;9.226;2023-06-22T03:47:08;9.18;;;8.30;;
7939;SDS011;4015;48.888;9.226;2023-06-22T03:49:34;10.90;;;8.45;;
7939;SDS011;4015;48.888;9.226;2023-06-22T03:52:00;10.10;;;8.77;;
7939;SDS011;4015;48.888;9.226;2023-06-22T03:54:27;9.13;;;8.07;;
7939;SDS011;4015;48.888;9.226;2023-06-22T03:56:53;9.85;;;8.10;;
7939;SDS011;4015;48.888;9.226;2023-06-22T03:59:19;10.65;;;8.80;;
7939;SDS011;4015;48.888;9.226;2023-06-22T04:01:44;9.35;;;7.97;;
7939;SDS011;4015;48.888;9.226;2023-06-22T04:04:09;10.30;;;7.93;;
7939;SDS011;4015;48.888;9.226;2023-06-22T04:06:35;8.55;;;7.65;;
7939;SDS011;4015;48.888;9.226;2023-06-22T04:09:00;9.50;;;8.60;;
7939;SDS011;4015;48.888;9.226;2023-06-22T04:11:26;17.27;;;8.73;;
7939;SDS011;4015;48.888;9.226;2023-06-22T04:13:51;10.85;;;8.20;;
7939;SDS011;4015;48.888;9.226;2023-06-22T04:16:17;11.13;;;8.68;;
7939;SDS011;4015;48.888;9.226;2023-06-22T04:18:42;11.23;;;8.60;;
7939;SDS011;4015;48.888;9.226;2023-06-22T04:21:07;8.95;;;7.82;;
7939;SDS011;4015;48.888;9.226;2023-06-22T04:23:33;10.07;;;9.07;;
7939;SDS011;4015;48.888;9.226;2023-06-22T04:25:58;8.95;;;8.02;;
7939;SDS011;4015;48.888;9.226;2023-06-22T04:28:24;10.30;;;8.85;;
7939;SDS011;4015;48.888;9.226;2023-06-22T04:30:49;9.50;;;8.50;;
7939;SDS011;4015;48.888;9.226;2023-06-22T04:33:16;10.43;;;8.55;;
7939;SDS011;4015;48.888;9.226;2023-06-22T04:35:42;9.80;;;8.80;;
7939;SDS011;4015;48.888;9.226;2023-06-22T04:38:11;10.25;;;8.73;;
7939;SDS011;4015;48.888;9.226;2023-06-22T04:40:38;11.60;;;8.50;;
7939;SDS011;4015;48.888;9.226;2023-06-22T04:43:03;13.30;;;9.02;;
7939;SDS011;4015;48.888;9.226;2023-06-22T04:45:31;10.93;;;9.25;;
7939;SDS011;4015;48.888;9.226;2023-06-22T04:47:56;9.00;;;8.20;;
7939;SDS011;4015;48.888;9.226;2023-06-22T04:50:21;36.05;;;32.20;;
7939;SDS011;4015;48.888;9.226;2023-06-22T04:52:48;16.10;;;12.25;;
7939;SDS011;4015;48.888;9.226;2023-06-22T04:55:14;10.95;;;9.00;;
7939;SDS011;4015;48.888;9.226;2023-06-22T04:57:48;10.20;;;8.27;;
7939;SDS011;4015;48.888;9.226;2023-06-22T05:00:20;9.73;;;8.73;;
7939;SDS011;4015;48.888;9.226;2023-06-22T05:02:48;17.60;;;15.70;;
7939;SDS011;4015;48.888;9.226;2023-06-22T05:05:13;18.67;;;15.57;;
7939;SDS011;4015;48.888;9.226;2023-06-22T05:07:42;9.50;;;8.18;;
7939;SDS011;4015;48.888;9.226;2023-06-22T05:10:10;10.52;;;8.77;;
7939;SDS011;4015;48.888;9.226;2023-06-22T05:12:37;10.60;;;8.52;;
7939;SDS011;4015;48.888;9.226;2023-06-22T05:15:02;13.52;;;8.68;;
7939;SDS011;4015;48.888;9.226;2023-06-22T05:17:28;12.98;;;9.02;;
7939;SDS011;4015;48.888;9.226;2023-06-22T05:19:53;12.85;;;9.00;;
7939;SDS011;4015;48.888;9.226;2023-06-22T05:22:20;13.68;;;8.80;;
7939;SDS011;4015;48.888;9.226;2023-06-22T05:24:45;15.45;;;9.38;;
7939;SDS011;4015;48.888;9.226;2023-06-22T05:27:11;18.08;;;13.02;;
7939;SDS011;4015;48.888;9.226;2023-06-22T05:29:37;12.65;;;9.38;;
7939;SDS011;4015;48.888;9.226;2023-06-22T05:32:02;12.52;;;9.25;;
7939;SDS011;4015;48.888;9.226;2023-06-22T05:34:28;11.77;;;8.55;;
7939;SDS011;4015;48.888;9.226;2023-06-22T05:36:54;12.57;;;8.68;;
7939;SDS011;4015;48.888;9.226;2023-06-22T05:39:19;10.60;;;8.50;;
7939;SDS011;4015;48.888;9.226;2023-06-22T05:41:45;12.80;;;10.52;;
7939;SDS011;4015;48.888;9.226;2023-06-22T05:44:10;11.85;;;8.52;;
7939;SDS011;4015;48.888;9.226;2023-06-22T05:46:36;12.63;;;8.52;;
7939;SDS011;4015;48.888;9.226;2023-06-22T05:49:02;18.15;;;14.05;;
7939;SDS011;4015;48.888;9.226;2023-06-22T05:51:27;11.68;;;9.65;;
7939;SDS011;4015;48.888;9.226;2023-06-22T05:53:52;11.32;;;8.35;;
7939;SDS011;4015;48.888;9.226;2023-06-22T05:56:18;11.18;;;8.50;;
7939;SDS011;4015;48.888;9.226;2023-06-22T05:58:43;10.70;;;8.32;;
7939;SDS011;4015;48.888;9.226;2023-06-22T06:01:09;9.55;;;7.47;;
7939;SDS011;4015;48.888;9.226;2023-06-22T06:03:35;9.32;;;8.00;;
7939;SDS011;4015;48.888;9.226;2023-06-22T06:06:06;10.13;;;8.15;;
7939;SDS011;4015;48.888;9.226;2023-06-22T06:08:32;13.00;;;8.73;;
7939;SDS011;4015;48.888;9.226;2023-06-22T06:10:58;10.45;;;7.72;;
7939;SDS011;4015;48.888;9.226;2023-06-22T06:13:23;14.38;;;8.65;;
7939;SDS011;4015;48.888;9.226;2023-06-22T06:15:49;10.25;;;9.15;;
7939;SDS011;4015;48.888;9.226;2023-06-22T06:18:16;12.38;;;8.98;;
7939;SDS011;4015;48.888;9.226;2023-06-22T06:20:41;9.10;;;7.78;;
7939;SDS011;4015;48.888;9.226;2023-06-22T06:23:07;9.02;;;7.82;;
7939;SDS011;4015;48.888;9.226;2023-06-22T06:25:32;8.40;;;6.95;;
7939;SDS011;4015;48.888;9.226;2023-06-22T06:27:58;8.13;;;7.03;;
7939;SDS011;4015;48.888;9.226;2023-06-22T06:30:23;10.63;;;6.80;;
7939;SDS011;4015;48.888;9.226;2023-06-22T06:32:49;11.60;;;7.95;;
7939;SDS011;4015;48.888;9.226;2023-06-22T06:35:15;7.57;;;6.22;;
7939;SDS011;4015;48.888;9.226;2023-06-22T06:37:44;9.23;;;7.47;;
7939;SDS011;4015;48.888;9.226;2023-06-22T06:40:11;8.90;;;7.10;;
7939;SDS011;4015;48.888;9.226;2023-06-22T06:42:38;10.40;;;7.32;;
7939;SDS011;4015;48.888;9.226;2023-06-22T06:45:09;7.35;;;6.55;;
7939;SDS011;4015;48.888;9.226;2023-06-22T06:47:35;8.15;;;6.93;;
7939;SDS011;4015;48.888;9.226;2023-06-22T06:50:01;8.38;;;6.18;;
7939;SDS011;4015;48.888;9.226;2023-06-22T06:52:27;8.15;;;6.50;;
7939;SDS011;4015;48.888;9.226;2023-06-22T06:54:52;9.77;;;6.10;;
7939;SDS011;4015;48.888;9.226;2023-06-22T06:57:18;6.20;;;5.07;;
7939;SDS011;4015;48.888;9.226;2023-06-22T06:59:45;8.15;;;5.80;;
7939;SDS011;4015;48.888;9.226;2023-06-22T07:02:10;8.93;;;5.45;;
7939;SDS011;4015;48.888;9.226;2023-06-22T07:04:36;9.93;;;6.05;;
7939;SDS011;4015;48.888;9.226;2023-06-22T07:07:01;8.63;;;6.35;;
7939;SDS011;4015;48.888;9.226;2023-06-22T07:09:28;9.20;;;5.30;;
7939;SDS011;4015;48.888;9.226;2023-06-22T07:11:53;11.63;;;6.15;;
7939;SDS011;4015;48.888;9.226;2023-06-22T07:14:18;6.72;;;5.55;;
7939;SDS011;4015;48.888;9.226;2023-06-22T07:16:44;6.90;;;5.13;;
7939;SDS011;4015;48.888;9.226;2023-06-22T07:19:11;7.22;;;5.70;;
7939;SDS011;4015;48.888;9.226;2023-06-22T07:21:37;9.60;;;8.75;;
7939;SDS011;4015;48.888;9.226;2023-06-22T07:24:04;6.75;;;6.05;;
7939;SDS011;4015;48.888;9.226;2023-06-22T07:26:30;5.88;;;4.97;;
7939;SDS011;4015;48.888;9.226;2023-06-22T07:28:56;6.68;;;5.15;;
7939;SDS011;4015;48.888;9.226;2023-06-22T07:31:23;7.65;;;5.45;;
7939;SDS011;4015;48.888;9.226;2023-06-22T07:33:49;6.57;;;5.22;;
7939;SDS011;4015;48.888;9.226;2023-06-22T07:36:14;8.55;;;5.65;;
7939;SDS011;4015;48.888;9.226;2023-06-22T07:38:40;6.97;;;4.97;;
7939;SDS011;4015;48.888;9.226;2023-06-22T07:41:05;5.38;;;4.85;;
7939;SDS011;4015;48.888;9.226;2023-06-22T07:43:31;7.45;;;5.57;;
7939;SDS011;4015;48.888;9.226;2023-06-22T07:45:58;6.25;;;5.03;;
7939;SDS011;4015;48.888;9.226;2023-06-22T07:48:23;5.70;;;4.97;;
7939;SDS011;4015;48.888;9.226;2023-06-22T07:50:48;8.40;;;4.85;;
7939;SDS011;4015;48.888;9.226;2023-06-22T07:53:14;6.13;;;4.60;;
7939;SDS011;4015;48.888;9.226;2023-06-22T07:55:39;10.48;;;5.55;;
7939;SDS011;4015;48.888;9.226;2023-06-22T07:58:05;6.28;;;5.68;;
7939;SDS011;4015;48.888;9.226;2023-06-22T08:00:30;7.03;;;4.22;;
7939;SDS011;4015;48.888;9.226;2023-06-22T08:02:55;12.57;;;11.15;;
7939;SDS011;4015;48.888;9.226;2023-06-22T08:05:21;8.77;;;4.82;;
7939;SDS011;4015;48.888;9.226;2023-06-22T08:07:46;9.60;;;4.40;;
7939;SDS011;4015;48.888;9.226;2023-06-22T08:10:12;8.93;;;6.78;;
7939;SDS011;4015;48.888;9.226;2023-06-22T08:12:41;9.80;;;8.80;;
7939;SDS011;4015;48.888;9.226;2023-06-22T08:15:06;11.68;;;6.30;;
7939;SDS011;4015;48.888;9.226;2023-06-22T08:17:32;9.38;;;4.90;;
7939;SDS011;4015;48.888;9.226;2023-06-22T08:19:58;7.35;;;4.88;;
7939;SDS011;4015;48.888;9.226;2023-06-22T08:22:23;7.13;;;4.32;;
7939;SDS011;4015;48.888;9.226;2023-06-22T08:24:49;7.53;;;4.57;;
7939;SDS011;4015;48.888;9.226;2023-06-22T08:27:14;6.40;;;4.80;;
7939;SDS011;4015;48.888;9.226;2023-06-22T08:29:41;5.82;;;4.22;;
7939;SDS011;4015;48.888;9.226;2023-06-22T08:32:10;6.20;;;4.40;;
7939;SDS011;4015;48.888;9.226;2023-06-22T08:34:36;6.28;;;4.40;;
7939;SDS011;4015;48.888;9.226;2023-06-22T08:37:02;6.25;;;4.40;;
7939;SDS011;4015;48.888;9.226;2023-06-22T08:39:31;7.20;;;5.07;;
7939;SDS011;4015;48.888;9.226;2023-06-22T08:41:57;4.85;;;4.25;;
7939;SDS011;4015;48.888;9.226;2023-06-22T08:44:22;6.13;;;3.85;;
7939;SDS011;4015;48.888;9.226;2023-06-22T08:46:47;6.20;;;4.38;;
7939;SDS011;4015;48.888;9.226;2023-06-22T08:49:13;9.45;;;4.55;;
7939;SDS011;4015;48.888;9.226;2023-06-22T08:51:38;12.25;;;6.05;;
7939;SDS011;4015;48.888;9.226;2023-06-22T08:54:03;6.90;;;4.45;;
7939;SDS011;4015;48.888;9.226;2023-06-22T08:56:29;10.73;;;5.25;;
7939;SDS011;4015;48.888;9.226;2023-06-22T08:58:54;8.27;;;4.70;;
7939;SDS011;4015;48.888;9.226;2023-06-22T09:01:19;9.15;;;5.03;;
7939;SDS011;4015;48.888;9.226;2023-06-22T09:03:45;4.95;;;4.13;;
7939;SDS011;4015;48.888;9.226;2023-06-22T09:06:19;6.05;;;4.22;;
7939;SDS011;4015;48.888;9.226;2023-06-22T09:08:44;5.50;;;4.03;;
7939;SDS011;4015;48.888;9.226;2023-06-22T09:11:11;6.35;;;3.97;;
7939;SDS011;4015;48.888;9.226;2023-06-22T09:13:36;10.93;;;4.47;;
7939;SDS011;4015;48.888;9.226;2023-06-22T09:16:02;13.25;;;4.70;;
7939;SDS011;4015;48.888;9.226;2023-06-22T09:18:27;5.30;;;4.15;;
7939;SDS011;4015;48.888;9.226;2023-06-22T09:20:52;7.03;;;4.22;;
7939;SDS011;4015;48.888;9.226;2023-06-22T09:23:18;8.60;;;4.32;;
7939;SDS011;4015;48.888;9.226;2023-06-22T09:25:43;8.70;;;4.30;;
7939;SDS011;4015;48.888;9.226;2023-06-22T09:28:08;7.63;;;4.43;;
7939;SDS011;4015;48.888;9.226;2023-06-22T09:30:34;6.88;;;4.47;;
7939;SDS011;4015;48.888;9.226;2023-06-22T09:32:59;7.68;;;4.82;;
7939;SDS011;4015;48.888;9.226;2023-06-22T09:35:24;8.75;;;4.05;;
7939;SDS011;4015;48.888;9.226;2023-06-22T09:37:50;7.57;;;4.72;;
7939;SDS011;4015;48.888;9.226;2023-06-22T09:40:15;7.90;;;4.43;;
7939;SDS011;4015;48.888;9.226;2023-06-22T09:42:41;5.45;;;4.00;;
7939;SDS011;4015;48.888;9.226;2023-06-22T09:45:07;6.65;;;4.63;;
7939;SDS011;4015;48.888;9.226;2023-06-22T09:47:33;13.35;;;5.07;;
7939;SDS011;4015;48.888;9.226;2023-06-22T09:49:58;7.75;;;4.30;;
7939;SDS011;4015;48.888;9.226;2023-06-22T09:52:24;13.38;;;4.57;;
7939;SDS011;4015;48.888;9.226;2023-06-22T09:54:50;12.38;;;6.40;;
7939;SDS011;4015;48.888;9.226;2023-06-22T09:57:15;8.70;;;4.05;;
7939;SDS011;4015;48.888;9.226;2023-06-22T09:59:41;5.97;;;4.60;;
7939;SDS011;4015;48.888;9.226;2023-06-22T10:02:06;7.15;;;4.85;;
7939;SDS011;4015;48.888;9.226;2023-06-22T10:04:32;5.63;;;3.97;;
7939;SDS011;4015;48.888;9.226;2023-06-22T10:06:58;7.97;;;3.85;;
7939;SDS011;4015;48.888;9.226;2023-06-22T10:09:24;10.07;;;4.70;;
7939;SDS011;4015;48.888;9.226;2023-06-22T10:11:49;7.38;;;4.93;;
7939;SDS011;4015;48.888;9.226;2023-06-22T10:14:14;8.40;;;4.63;;
7939;SDS011;4015;48.888;9.226;2023-06-22T10:16:40;10.05;;;4.38;;
7939;SDS011;4015;48.888;9.226;2023-06-22T10:19:06;8.82;;;4.18;;
7939;SDS011;4015;48.888;9.226;2023-06-22T10:21:31;6.97;;;4.47;;
7939;SDS011;4015;48.888;9.226;2023-06-22T10:23:57;7.85;;;4.32;;
7939;SDS011;4015;48.888;9.226;2023-06-22T10:26:24;8.95;;;4.63;;
7939;SDS011;4015;48.888;9.226;2023-06-22T10:28:50;8.32;;;4.28;;
7939;SDS011;4015;48.888;9.226;2023-06-22T10:31:15;5.78;;;4.90;;
7939;SDS011;4015;48.888;9.226;2023-06-22T10:33:41;6.07;;;4.55;;
7939;SDS011;4015;48.888;9.226;2023-06-22T10:36:08;9.75;;;4.65;;
7939;SDS011;4015;48.888;9.226;2023-06-22T10:38:34;11.45;;;4.80;;
7939;SDS011;4015;48.888;9.226;2023-06-22T10:40:59;8.52;;;4.60;;
7939;SDS011;4015;48.888;9.226;2023-06-22T10:43:25;9.38;;;5.15;;
7939;SDS011;4015;48.888;9.226;2023-06-22T10:45:50;7.28;;;4.60;;
7939;SDS011;4015;48.888;9.226;2023-06-22T10:48:15;7.95;;;4.22;;
7939;SDS011;4015;48.888;9.226;2023-06-22T10:50:41;7.40;;;4.20;;
7939;SDS011;4015;48.888;9.226;2023-06-22T10:53:06;8.10;;;4.47;;
7939;SDS011;4015;48.888;9.226;2023-06-22T10:55:31;9.02;;;4.72;;
7939;SDS011;4015;48.888;9.226;2023-06-22T10:57:57;9.32;;;4.40;;
7939;SDS011;4015;48.888;9.226;2023-06-22T11:00:22;11.40;;;4.43;;
7939;SDS011;4015;48.888;9.226;2023-06-22T11:02:47;8.70;;;5.30;;
7939;SDS011;4015;48.888;9.226;2023-06-22T11:05:13;11.75;;;4.38;;
7939;SDS011;4015;48.888;9.226;2023-06-22T11:07:41;8.13;;;4.13;;
7939;SDS011;4015;48.888;9.226;2023-06-22T11:10:07;9.02;;;4.20;;
7939;SDS011;4015;48.888;9.226;2023-06-22T11:12:33;8.85;;;3.83;;
7939;SDS011;4015;48.888;9.226;2023-06-22T11:14:58;9.95;;;4.63;;
7939;SDS011;4015;48.888;9.226;2023-06-22T11:17:23;11.55;;;4.45;;
7939;SDS011;4015;48.888;9.226;2023-06-22T11:19:50;7.15;;;4.00;;
7939;SDS011;4015;48.888;9.226;2023-06-22T11:22:15;8.30;;;4.63;;
7939;SDS011;4015;48.888;9.226;2023-06-22T11:24:41;8.88;;;4.30;;
7939;SDS011;4015;48.888;9.226;2023-06-22T11:27:06;9.38;;;4.15;;
7939;SDS011;4015;48.888;9.226;2023-06-22T11:29:32;7.13;;;4.47;;
7939;SDS011;4015;48.888;9.226;2023-06-22T11:31:57;12.07;;;5.05;;
7939;SDS011;4015;48.888;9.226;2023-06-22T11:34:22;12.02;;;4.78;;
7939;SDS011;4015;48.888;9.226;2023-06-22T11:36:48;5.60;;;4.93;;
7939;SDS011;4015;48.888;9.226;2023-06-22T11:39:13;10.00;;;4.18;;
7939;SDS011;4015;48.888;9.226;2023-06-22T11:41:40;9.30;;;4.38;;
7939;SDS011;4015;48.888;9.226;2023-06-22T11:44:05;8.00;;;4.93;;
7939;SDS011;4015;48.888;9.226;2023-06-22T11:46:31;7.40;;;4.63;;
7939;SDS011;4015;48.888;9.226;2023-06-22T11:48:57;9.30;;;4.55;;
7939;SDS011;4015;48.888;9.226;2023-06-22T11:51:23;7.93;;;5.05;;
7939;SDS011;4015;48.888;9.226;2023-06-22T11:53:48;8.75;;;4.60;;
7939;SDS011;4015;48.888;9.226;2023-06-22T11:56:13;9.07;;;4.70;;
7939;SDS011;4015;48.888;9.226;2023-06-22T11:58:39;8.73;;;4.32;;
7939;SDS011;4015;48.888;9.226;2023-06-22T12:01:04;9.15;;;3.95;;
7939;SDS011;4015;48.888;9.226;2023-06-22T12:03:30;7.53;;;4.30;;
7939;SDS011;4015;48.888;9.226;2023-06-22T12:05:55;7.78;;;4.43;;
7939;SDS011;4015;48.888;9.226;2023-06-22T12:08:21;6.95;;;4.45;;
7939;SDS011;4015;48.888;9.226;2023-06-22T12:10:46;11.65;;;5.15;;
7939;SDS011;4015;48.888;9.226;2023-06-22T12:13:14;8.05;;;4.60;;
7939;SDS011;4015;48.888;9.226;2023-06-22T12:15:40;8.82;;;4.50;;
7939;SDS011;4015;48.888;9.226;2023-06-22T12:18:05;6.47;;;4.20;;
7939;SDS011;4015;48.888;9.226;2023-06-22T12:20:31;10.32;;;4.53;;
7939;SDS011;4015;48.888;9.226;2023-06-22T12:22:57;6.50;;;4.50;;
7939;SDS011;4015;48.888;9.226;2023-06-22T12:25:23;5.40;;;4.25;;
7939;SDS011;4015;48.888;9.226;2023-06-22T12:27:49;6.43;;;4.45;;
7939;SDS011;4015;48.888;9.226;2023-06-22T12:30:15;8.52;;;4.80;;
7939;SDS011;4015;48.888;9.226;2023-06-22T12:32:41;11.27;;;4.68;;
7939;SDS011;4015;48.888;9.226;2023-06-22T12:35:06;12.05;;;5.65;;
7939;SDS011;4015;48.888;9.226;2023-06-22T12:37:37;11.82;;;5.13;;
7939;SDS011;4015;48.888;9.226;2023-06-22T12:40:02;6.57;;;4.60;;
7939;SDS011;4015;48.888;9.226;2023-06-22T12:42:29;11.98;;;5.70;;
7939;SDS011;4015;48.888;9.226;2023-06-22T12:44:54;10.35;;;4.43;;
7939;SDS011;4015;48.888;9.226;2023-06-22T12:47:19;9.68;;;5.30;;
7939;SDS011;4015;48.888;9.226;2023-06-22T12:49:45;10.50;;;5.35;;
7939;SDS011;4015;48.888;9.226;2023-06-22T12:52:10;13.00;;;5.65;;
7939;SDS011;4015;48.888;9.226;2023-06-22T12:54:36;8.57;;;5.25;;
7939;SDS011;4015;48.888;9.226;2023-06-22T12:57:01;19.80;;;14.05;;
7939;SDS011;4015;48.888;9.226;2023-06-22T12:59:27;16.95;;;7.45;;
7939;SDS011;4015;48.888;9.226;2023-06-22T13:01:52;8.93;;;4.35;;
7939;SDS011;4015;48.888;9.226;2023-06-22T13:04:17;13.43;;;5.70;;
7939;SDS011;4015;48.888;9.226;2023-06-22T13:06:44;11.85;;;5.57;;
7939;SDS011;4015;48.888;9.226;2023-06-22T13:09:13;12.63;;;5.53;;
7939;SDS011;4015;48.888;9.226;2023-06-22T13:11:39;7.50;;;4.68;;
7939;SDS011;4015;48.888;9.226;2023-06-22T13:14:04;12.80;;;5.60;;
7939;SDS011;4015;48.888;9.226;2023-06-22T13:16:30;8.45;;;4.80;;
7939;SDS011;4015;48.888;9.226;2023-06-22T13:18:55;7.80;;;5.30;;
7939;SDS011;4015;48.888;9.226;2023-06-22T13:21:21;12.02;;;5.22;;
7939;SDS011;4015;48.888;9.226;2023-06-22T13:23:46;11.65;;;5.32;;
7939;SDS011;4015;48.888;9.226;2023-06-22T13:26:11;8.35;;;5.30;;
7939;SDS011;4015;48.888;9.226;2023-06-22T13:28:36;9.10;;;4.72;;
7939;SDS011;4015;48.888;9.226;2023-06-22T13:31:02;12.07;;;4.85;;
7939;SDS011;4015;48.888;9.226;2023-06-22T13:33:27;10.65;;;6.10;;
7939;SDS011;4015;48.888;9.226;2023-06-22T13:35:52;13.05;;;5.20;;
7939;SDS011;4015;48.888;9.226;2023-06-22T13:38:18;10.15;;;5.75;;
7939;SDS011;4015;48.888;9.226;2023-06-22T13:40:43;10.23;;;5.53;;
7939;SDS011;4015;48.888;9.226;2023-06-22T13:43:09;10.63;;;5.03;;
7939;SDS011;4015;48.888;9.226;2023-06-22T13:45:34;17.10;;;5.93;;
7939;SDS011;4015;48.888;9.226;2023-06-22T13:47:59;8.07;;;4.68;;
7939;SDS011;4015;48.888;9.226;2023-06-22T13:50:25;13.48;;;5.35;;
7939;SDS011;4015;48.888;9.226;2023-06-22T13:52:50;10.88;;;5.47;;
7939;SDS011;4015;48.888;9.226;2023-06-22T13:55:15;9.73;;;5.68;;
7939;SDS011;4015;48.888;9.226;2023-06-22T13:57:41;13.65;;;5.07;;
7939;SDS011;4015;48.888;9.226;2023-06-22T14:00:08;12.90;;;4.97;;
7939;SDS011;4015;48.888;9.226;2023-06-22T14:02:34;15.00;;;5.43;;
7939;SDS011;4015;48.888;9.226;2023-06-22T14:05:00;9.90;;;4.60;;
7939;SDS011;4015;48.888;9.226;2023-06-22T14:07:27;7.82;;;4.80;;
7939;SDS011;4015;48.888;9.226;2023-06-22T14:09:52;9.63;;;5.30;;
7939;SDS011;4015;48.888;9.226;2023-06-22T14:12:17;9.82;;;5.50;;
7939;SDS011;4015;48.888;9.226;2023-06-22T14:14:43;9.15;;;5.97;;
7939;SDS011;4015;48.888;9.226;2023-06-22T14:17:09;13.43;;;5.60;;
7939;SDS011;4015;48.888;9.226;2023-06-22T14:19:34;12.45;;;5.68;;
7939;SDS011;4015;48.888;9.226;2023-06-22T14:22:00;14.07;;;5.70;;
7939;SDS011;4015;48.888;9.226;2023-06-22T14:24:25;15.90;;;4.82;;
7939;SDS011;4015;48.888;9.226;2023-06-22T14:26:50;8.43;;;5.03;;
7939;SDS011;4015;48.888;9.226;2023-06-22T14:29:16;9.82;;;5.50;;
7939;SDS011;4015;48.888;9.226;2023-06-22T14:31:44;17.33;;;5.45;;
7939;SDS011;4015;48.888;9.226;2023-06-22T14:34:10;8.60;;;5.32;;
7939;SDS011;4015;48.888;9.226;2023-06-22T14:36:36;12.55;;;6.28;;
7939;SDS011;4015;48.888;9.226;2023-06-22T14:39:01;14.77;;;5.47;;
7939;SDS011;4015;48.888;9.226;2023-06-22T14:41:26;12.18;;;5.05;;
7939;SDS011;4015;48.888;9.226;2023-06-22T14:43:52;10.70;;;5.20;;
7939;SDS011;4015;48.888;9.226;2023-06-22T14:46:18;12.95;;;5.35;;
7939;SDS011;4015;48.888;9.226;2023-06-22T14:48:44;11.57;;;5.10;;
7939;SDS011;4015;48.888;9.226;2023-06-22T14:51:09;8.25;;;4.57;;
7939;SDS011;4015;48.888;9.226;2023-06-22T14:53:35;8.75;;;3.55;;
7939;SDS011;4015;48.888;9.226;2023-06-22T14:56:01;11.30;;;4.53;;
7939;SDS011;4015;48.888;9.226;2023-06-22T14:58:28;9.30;;;4.38;;
7939;SDS011;4015;48.888;9.226;2023-06-22T15:00:58;9.70;;;4.30;;
7939;SDS011;4015;48.888;9.226;2023-06-22T15:03:24;10.35;;;4.40;;
7939;SDS011;4015;48.888;9.226;2023-06-22T15:05:52;10.27;;;3.92;;